sensor_id;sensor_type;location;lat;lon;timestamp;P1;durP1;ratioP1;P2;durP2;ratioP2
24147;SDS011;12309;51.450;-2.624;2024-03-06T00:01:47;12.80;;;4.40;;
24147;SDS011;12309;51.450;-2.624;2024-03-06T00:04:13;11.07;;;4.00;;
24147;SDS011;12309;51.450;-2.624;2024-03-06T00:06:38;13.83;;;4.80;;
24147;SDS011;12309;51.450;-2.624;2024-03-06T00:09:04;13.73;;;4.20;;
24147;SDS011;12309;51.450;-2.624;2024-03-06T00:11:30;9.67;;;4.07;;
24147;SDS011;12309;51.450;-2.624;2024-03-06T00:13:56;16.13;;;4.63;;
24147;SDS011;12309;51.450;-2.624;2024-03-06T00:16:21;12.43;;;4.37;;
24147;SDS011;12309;51.450;-2.624;2024-03-06T00:18:47;16.87;;;4.70;;
24147;SDS011;12309;51.450;-2.624;2024-03-06T00:21:13;17.33;;;4.33;;
24147;SDS011;12309;51.450;-2.624;2024-03-06T00:23:39;12.07;;;4.20;;
24147;SDS011;12309;51.450;-2.624;2024-03-06T00:26:04;15.57;;;4.67;;
24147;SDS011;12309;51.450;-2.624;2024-03-06T00:28:30;10.00;;;3.87;;
24147;SDS011;12309;51.450;-2.624;2024-03-06T00:30:56;14.00;;;4.60;;
24147;SDS011;12309;51.450;-2.624;2024-03-06T00:33:21;11.70;;;3.60;;
24147;SDS011;12309;51.450;-2.624;2024-03-06T00:35:48;11.63;;;4.30;;
24147;SDS011;12309;51.450;-2.624;2024-03-06T00:38:14;14.53;;;3.93;;
24147;SDS011;12309;51.450;-2.624;2024-03-06T00:40:40;9.27;;;3.90;;
24147;SDS011;12309;51.450;-2.624;2024-03-06T00:43:05;11.50;;;4.23;;
24147;SDS011;12309;51.450;-2.624;2024-03-06T00:45:31;15.27;;;4.13;;
24147;SDS011;12309;51.450;-2.624;2024-03-06T00:47:57;17.07;;;3.80;;
24147;SDS011;12309;51.450;-2.624;2024-03-06T00:50:23;12.97;;;4.40;;
24147;SDS011;12309;51.450;-2.624;2024-03-06T00:52:49;14.67;;;4.00;;
24147;SDS011;12309;51.450;-2.624;2024-03-06T00:55:14;13.93;;;4.27;;
24147;SDS011;12309;51.450;-2.624;2024-03-06T00:57:40;10.43;;;3.37;;
24147;SDS011;12309;51.450;-2.624;2024-03-06T01:00:06;9.70;;;3.20;;
24147;SDS011;12309;51.450;-2.624;2024-03-06T01:02:36;12.30;;;3.97;;
24147;SDS011;12309;51.450;-2.624;2024-03-06T01:05:05;9.90;;;3.40;;
24147;SDS011;12309;51.450;-2.624;2024-03-06T01:07:32;11.13;;;3.80;;
24147;SDS011;12309;51.450;-2.624;2024-03-06T01:09:58;15.23;;;4.00;;
24147;SDS011;12309;51.450;-2.624;2024-03-06T01:12:24;15.97;;;4.03;;
24147;SDS011;12309;51.450;-2.624;2024-03-06T01:14:50;8.17;;;3.70;;
24147;SDS011;12309;51.450;-2.624;2024-03-06T01:17:16;11.83;;;3.87;;
24147;SDS011;12309;51.450;-2.624;2024-03-06T01:19:42;12.87;;;3.77;;
24147;SDS011;12309;51.450;-2.624;2024-03-06T01:22:08;12.47;;;3.90;;
24147;SDS011;12309;51.450;-2.624;2024-03-06T01:24:34;14.27;;;3.90;;
24147;SDS011;12309;51.450;-2.624;2024-03-06T01:27:00;13.37;;;3.97;;
24147;SDS011;12309;51.450;-2.624;2024-03-06T01:29:28;14.13;;;4.07;;
24147;SDS011;12309;51.450;-2.624;2024-03-06T01:31:53;16.27;;;4.33;;
24147;SDS011;12309;51.450;-2.624;2024-03-06T01:34:19;15.43;;;4.43;;
24147;SDS011;12309;51.450;-2.624;2024-03-06T01:36:45;12.40;;;4.27;;
24147;SDS011;12309;51.450;-2.624;2024-03-06T01:39:11;12.53;;;3.90;;
24147;SDS011;12309;51.450;-2.624;2024-03-06T01:41:36;9.30;;;3.90;;
24147;SDS011;12309;51.450;-2.624;2024-03-06T01:44:03;10.57;;;3.67;;
24147;SDS011;12309;51.450;-2.624;2024-03-06T01:46:29;17.60;;;4.43;;
24147;SDS011;12309;51.450;-2.624;2024-03-06T01:48:55;13.30;;;4.23;;
24147;SDS011;12309;51.450;-2.624;2024-03-06T01:51:21;15.73;;;4.50;;
24147;SDS011;12309;51.450;-2.624;2024-03-06T01:53:46;14.03;;;3.87;;
24147;SDS011;12309;51.450;-2.624;2024-03-06T01:56:13;19.10;;;4.80;;
24147;SDS011;12309;51.450;-2.624;2024-03-06T01:58:42;15.13;;;4.40;;
24147;SDS011;12309;51.450;-2.624;2024-03-06T02:01:11;15.80;;;3.80;;
24147;SDS011;12309;51.450;-2.624;2024-03-06T02:03:37;11.37;;;3.87;;
24147;SDS011;12309;51.450;-2.624;2024-03-06T02:06:03;13.53;;;4.10;;
24147;SDS011;12309;51.450;-2.624;2024-03-06T02:08:30;17.57;;;4.33;;
24147;SDS011;12309;51.450;-2.624;2024-03-06T02:10:57;12.93;;;3.90;;
24147;SDS011;12309;51.450;-2.624;2024-03-06T02:13:23;9.77;;;3.70;;
24147;SDS011;12309;51.450;-2.624;2024-03-06T02:15:48;12.63;;;4.20;;
24147;SDS011;12309;51.450;-2.624;2024-03-06T02:18:14;13.57;;;4.00;;
24147;SDS011;12309;51.450;-2.624;2024-03-06T02:20:40;11.97;;;3.73;;
24147;SDS011;12309;51.450;-2.624;2024-03-06T02:23:06;10.23;;;3.57;;
24147;SDS011;12309;51.450;-2.624;2024-03-06T02:25:32;11.50;;;3.37;;
24147;SDS011;12309;51.450;-2.624;2024-03-06T02:27:58;13.37;;;4.03;;
24147;SDS011;12309;51.450;-2.624;2024-03-06T02:30:24;9.47;;;3.80;;
24147;SDS011;12309;51.450;-2.624;2024-03-06T02:32:50;11.17;;;3.37;;
24147;SDS011;12309;51.450;-2.624;2024-03-06T02:35:16;11.57;;;3.93;;
24147;SDS011;12309;51.450;-2.624;2024-03-06T02:37:43;13.43;;;3.60;;
24147;SDS011;12309;51.450;-2.624;2024-03-06T02:40:12;9.33;;;3.43;;
24147;SDS011;12309;51.450;-2.624;2024-03-06T02:42:37;11.80;;;3.97;;
24147;SDS011;12309;51.450;-2.624;2024-03-06T02:45:04;12.73;;;3.93;;
24147;SDS011;12309;51.450;-2.624;2024-03-06T02:47:32;10.87;;;3.93;;
24147;SDS011;12309;51.450;-2.624;2024-03-06T02:49:57;10.50;;;3.87;;
24147;SDS011;12309;51.450;-2.624;2024-03-06T02:52:23;7.97;;;3.37;;
24147;SDS011;12309;51.450;-2.624;2024-03-06T02:54:48;17.47;;;4.23;;
24147;SDS011;12309;51.450;-2.624;2024-03-06T02:57:14;12.80;;;3.90;;
24147;SDS011;12309;51.450;-2.624;2024-03-06T02:59:40;11.53;;;3.97;;
24147;SDS011;12309;51.450;-2.624;2024-03-06T03:02:06;13.60;;;4.53;;
24147;SDS011;12309;51.450;-2.624;2024-03-06T03:04:31;13.47;;;4.50;;
24147;SDS011;12309;51.450;-2.624;2024-03-06T03:06:57;13.43;;;4.20;;
24147;SDS011;12309;51.450;-2.624;2024-03-06T03:09:23;21.23;;;4.87;;
24147;SDS011;12309;51.450;-2.624;2024-03-06T03:11:49;20.73;;;5.10;;
24147;SDS011;12309;51.450;-2.624;2024-03-06T03:14:14;8.70;;;3.67;;
24147;SDS011;12309;51.450;-2.624;2024-03-06T03:16:40;12.80;;;4.60;;
24147;SDS011;12309;51.450;-2.624;2024-03-06T03:19:07;15.60;;;4.47;;
24147;SDS011;12309;51.450;-2.624;2024-03-06T03:21:33;13.03;;;4.23;;
24147;SDS011;12309;51.450;-2.624;2024-03-06T03:23:59;11.83;;;4.27;;
24147;SDS011;12309;51.450;-2.624;2024-03-06T03:26:25;15.83;;;4.43;;
24147;SDS011;12309;51.450;-2.624;2024-03-06T03:28:50;13.50;;;4.40;;
24147;SDS011;12309;51.450;-2.624;2024-03-06T03:31:16;20.10;;;4.60;;
24147;SDS011;12309;51.450;-2.624;2024-03-06T03:33:42;12.80;;;4.70;;
24147;SDS011;12309;51.450;-2.624;2024-03-06T03:36:08;11.43;;;4.03;;
24147;SDS011;12309;51.450;-2.624;2024-03-06T03:38:37;14.00;;;3.90;;
24147;SDS011;12309;51.450;-2.624;2024-03-06T03:41:12;9.03;;;4.20;;
24147;SDS011;12309;51.450;-2.624;2024-03-06T03:43:38;13.47;;;4.57;;
24147;SDS011;12309;51.450;-2.624;2024-03-06T03:46:05;10.53;;;4.10;;
24147;SDS011;12309;51.450;-2.624;2024-03-06T03:48:31;14.23;;;4.30;;
24147;SDS011;12309;51.450;-2.624;2024-03-06T03:51:01;15.13;;;4.43;;
24147;SDS011;12309;51.450;-2.624;2024-03-06T03:53:29;10.87;;;3.57;;
24147;SDS011;12309;51.450;-2.624;2024-03-06T03:55:55;12.50;;;4.43;;
24147;SDS011;12309;51.450;-2.624;2024-03-06T03:58:20;13.13;;;4.37;;
24147;SDS011;12309;51.450;-2.624;2024-03-06T04:00:46;8.63;;;4.03;;
24147;SDS011;12309;51.450;-2.624;2024-03-06T04:03:12;13.50;;;3.97;;
24147;SDS011;12309;51.450;-2.624;2024-03-06T04:05:39;16.30;;;4.67;;
24147;SDS011;12309;51.450;-2.624;2024-03-06T04:08:04;17.73;;;4.40;;
24147;SDS011;12309;51.450;-2.624;2024-03-06T04:10:33;14.27;;;3.90;;
24147;SDS011;12309;51.450;-2.624;2024-03-06T04:12:59;13.30;;;4.20;;
24147;SDS011;12309;51.450;-2.624;2024-03-06T04:15:25;9.67;;;3.80;;
24147;SDS011;12309;51.450;-2.624;2024-03-06T04:17:51;12.13;;;3.87;;
24147;SDS011;12309;51.450;-2.624;2024-03-06T04:20:17;8.20;;;4.10;;
24147;SDS011;12309;51.450;-2.624;2024-03-06T04:22:43;12.77;;;4.03;;
24147;SDS011;12309;51.450;-2.624;2024-03-06T04:25:11;10.53;;;4.17;;
24147;SDS011;12309;51.450;-2.624;2024-03-06T04:27:37;12.33;;;3.87;;
24147;SDS011;12309;51.450;-2.624;2024-03-06T04:30:03;13.63;;;5.13;;
24147;SDS011;12309;51.450;-2.624;2024-03-06T04:32:29;14.63;;;5.00;;
24147;SDS011;12309;51.450;-2.624;2024-03-06T04:34:55;15.23;;;5.20;;
24147;SDS011;12309;51.450;-2.624;2024-03-06T04:37:21;14.27;;;5.30;;
24147;SDS011;12309;51.450;-2.624;2024-03-06T04:39:47;13.30;;;5.27;;
24147;SDS011;12309;51.450;-2.624;2024-03-06T04:42:13;13.10;;;4.87;;
24147;SDS011;12309;51.450;-2.624;2024-03-06T04:44:39;14.57;;;5.00;;
24147;SDS011;12309;51.450;-2.624;2024-03-06T04:47:04;13.47;;;5.13;;
24147;SDS011;12309;51.450;-2.624;2024-03-06T04:49:33;10.40;;;4.77;;
24147;SDS011;12309;51.450;-2.624;2024-03-06T04:51:59;14.87;;;4.93;;
24147;SDS011;12309;51.450;-2.624;2024-03-06T04:54:25;14.33;;;4.63;;
24147;SDS011;12309;51.450;-2.624;2024-03-06T04:56:51;9.73;;;4.30;;
24147;SDS011;12309;51.450;-2.624;2024-03-06T04:59:16;12.80;;;4.50;;
24147;SDS011;12309;51.450;-2.624;2024-03-06T05:01:42;15.70;;;4.83;;
24147;SDS011;12309;51.450;-2.624;2024-03-06T05:04:09;12.70;;;4.60;;
24147;SDS011;12309;51.450;-2.624;2024-03-06T05:06:36;16.53;;;5.60;;
24147;SDS011;12309;51.450;-2.624;2024-03-06T05:09:02;12.70;;;5.13;;
24147;SDS011;12309;51.450;-2.624;2024-03-06T05:11:29;12.93;;;4.70;;
24147;SDS011;12309;51.450;-2.624;2024-03-06T05:13:55;14.50;;;5.07;;
24147;SDS011;12309;51.450;-2.624;2024-03-06T05:16:22;14.20;;;5.27;;
24147;SDS011;12309;51.450;-2.624;2024-03-06T05:18:49;11.10;;;4.30;;
24147;SDS011;12309;51.450;-2.624;2024-03-06T05:21:14;11.70;;;4.70;;
24147;SDS011;12309;51.450;-2.624;2024-03-06T05:23:41;12.33;;;4.40;;
24147;SDS011;12309;51.450;-2.624;2024-03-06T05:26:06;13.10;;;4.90;;
24147;SDS011;12309;51.450;-2.624;2024-03-06T05:28:32;13.33;;;4.37;;
24147;SDS011;12309;51.450;-2.624;2024-03-06T05:30:58;14.97;;;4.83;;
24147;SDS011;12309;51.450;-2.624;2024-03-06T05:33:25;14.97;;;4.77;;
24147;SDS011;12309;51.450;-2.624;2024-03-06T05:35:53;13.17;;;4.70;;
24147;SDS011;12309;51.450;-2.624;2024-03-06T05:38:19;12.60;;;4.90;;
24147;SDS011;12309;51.450;-2.624;2024-03-06T05:40:47;12.30;;;6.27;;
24147;SDS011;12309;51.450;-2.624;2024-03-06T05:43:12;12.77;;;4.40;;
24147;SDS011;12309;51.450;-2.624;2024-03-06T05:45:38;16.63;;;4.93;;
24147;SDS011;12309;51.450;-2.624;2024-03-06T05:48:04;11.10;;;4.67;;
24147;SDS011;12309;51.450;-2.624;2024-03-06T05:50:31;11.20;;;4.70;;
24147;SDS011;12309;51.450;-2.624;2024-03-06T05:52:57;8.90;;;4.17;;
24147;SDS011;12309;51.450;-2.624;2024-03-06T05:55:23;11.40;;;4.77;;
24147;SDS011;12309;51.450;-2.624;2024-03-06T05:57:48;58.67;;;10.43;;
24147;SDS011;12309;51.450;-2.624;2024-03-06T06:00:14;19.73;;;5.43;;
24147;SDS011;12309;51.450;-2.624;2024-03-06T06:02:43;9.77;;;4.87;;
24147;SDS011;12309;51.450;-2.624;2024-03-06T06:05:10;12.67;;;4.60;;
24147;SDS011;12309;51.450;-2.624;2024-03-06T06:07:36;12.50;;;4.47;;
24147;SDS011;12309;51.450;-2.624;2024-03-06T06:10:03;13.80;;;5.03;;
24147;SDS011;12309;51.450;-2.624;2024-03-06T06:12:33;13.70;;;5.20;;
24147;SDS011;12309;51.450;-2.624;2024-03-06T06:14:59;17.13;;;5.20;;
24147;SDS011;12309;51.450;-2.624;2024-03-06T06:17:25;14.53;;;5.73;;
24147;SDS011;12309;51.450;-2.624;2024-03-06T06:19:50;14.43;;;5.33;;
24147;SDS011;12309;51.450;-2.624;2024-03-06T06:22:16;12.47;;;5.47;;
24147;SDS011;12309;51.450;-2.624;2024-03-06T06:24:42;18.77;;;5.83;;
24147;SDS011;12309;51.450;-2.624;2024-03-06T06:27:08;19.60;;;6.00;;
24147;SDS011;12309;51.450;-2.624;2024-03-06T06:29:33;15.90;;;5.87;;
24147;SDS011;12309;51.450;-2.624;2024-03-06T06:31:59;18.27;;;5.83;;
24147;SDS011;12309;51.450;-2.624;2024-03-06T06:34:24;9.43;;;4.93;;
24147;SDS011;12309;51.450;-2.624;2024-03-06T06:36:53;12.63;;;5.23;;
24147;SDS011;12309;51.450;-2.624;2024-03-06T06:39:18;17.97;;;5.67;;
24147;SDS011;12309;51.450;-2.624;2024-03-06T06:41:44;11.93;;;5.27;;
24147;SDS011;12309;51.450;-2.624;2024-03-06T06:44:10;21.17;;;5.80;;
24147;SDS011;12309;51.450;-2.624;2024-03-06T06:46:35;12.93;;;5.03;;
24147;SDS011;12309;51.450;-2.624;2024-03-06T06:49:01;16.97;;;6.03;;
24147;SDS011;12309;51.450;-2.624;2024-03-06T06:51:27;13.20;;;5.53;;
24147;SDS011;12309;51.450;-2.624;2024-03-06T06:53:53;12.63;;;5.53;;
24147;SDS011;12309;51.450;-2.624;2024-03-06T06:56:20;12.73;;;5.60;;
24147;SDS011;12309;51.450;-2.624;2024-03-06T06:58:49;12.90;;;5.27;;
24147;SDS011;12309;51.450;-2.624;2024-03-06T07:01:14;10.27;;;5.20;;
24147;SDS011;12309;51.450;-2.624;2024-03-06T07:03:41;11.60;;;5.13;;
24147;SDS011;12309;51.450;-2.624;2024-03-06T07:06:07;14.83;;;5.87;;
24147;SDS011;12309;51.450;-2.624;2024-03-06T07:08:33;11.13;;;5.43;;
24147;SDS011;12309;51.450;-2.624;2024-03-06T07:10:59;14.53;;;5.57;;
24147;SDS011;12309;51.450;-2.624;2024-03-06T07:13:24;17.77;;;5.67;;
24147;SDS011;12309;51.450;-2.624;2024-03-06T07:15:51;14.10;;;5.40;;
24147;SDS011;12309;51.450;-2.624;2024-03-06T07:18:16;14.87;;;5.70;;
24147;SDS011;12309;51.450;-2.624;2024-03-06T07:20:42;11.87;;;5.57;;
24147;SDS011;12309;51.450;-2.624;2024-03-06T07:23:08;15.43;;;5.57;;
24147;SDS011;12309;51.450;-2.624;2024-03-06T07:25:34;12.03;;;5.23;;
24147;SDS011;12309;51.450;-2.624;2024-03-06T07:27:59;10.63;;;4.97;;
24147;SDS011;12309;51.450;-2.624;2024-03-06T07:30:25;16.77;;;6.13;;
24147;SDS011;12309;51.450;-2.624;2024-03-06T07:32:51;14.87;;;5.70;;
24147;SDS011;12309;51.450;-2.624;2024-03-06T07:35:17;12.73;;;6.03;;
24147;SDS011;12309;51.450;-2.624;2024-03-06T07:37:43;15.70;;;6.47;;
24147;SDS011;12309;51.450;-2.624;2024-03-06T07:40:09;13.17;;;6.30;;
24147;SDS011;12309;51.450;-2.624;2024-03-06T07:42:35;12.53;;;5.63;;
24147;SDS011;12309;51.450;-2.624;2024-03-06T07:45:03;15.17;;;6.70;;
24147;SDS011;12309;51.450;-2.624;2024-03-06T07:47:30;14.43;;;5.90;;
24147;SDS011;12309;51.450;-2.624;2024-03-06T07:49:56;17.23;;;6.47;;
24147;SDS011;12309;51.450;-2.624;2024-03-06T07:52:21;13.83;;;5.40;;
24147;SDS011;12309;51.450;-2.624;2024-03-06T07:54:47;12.73;;;5.23;;
24147;SDS011;12309;51.450;-2.624;2024-03-06T07:57:12;14.17;;;5.90;;
24147;SDS011;12309;51.450;-2.624;2024-03-06T07:59:38;15.83;;;5.77;;
24147;SDS011;12309;51.450;-2.624;2024-03-06T08:02:05;20.53;;;5.97;;
24147;SDS011;12309;51.450;-2.624;2024-03-06T08:04:31;15.33;;;6.20;;
24147;SDS011;12309;51.450;-2.624;2024-03-06T08:06:57;14.43;;;5.57;;
24147;SDS011;12309;51.450;-2.624;2024-03-06T08:09:23;14.57;;;5.80;;
24147;SDS011;12309;51.450;-2.624;2024-03-06T08:11:50;15.60;;;6.20;;
24147;SDS011;12309;51.450;-2.624;2024-03-06T08:14:19;14.43;;;6.80;;
24147;SDS011;12309;51.450;-2.624;2024-03-06T08:16:45;14.77;;;6.00;;
24147;SDS011;12309;51.450;-2.624;2024-03-06T08:19:11;14.23;;;6.00;;
24147;SDS011;12309;51.450;-2.624;2024-03-06T08:21:36;17.70;;;6.70;;
24147;SDS011;12309;51.450;-2.624;2024-03-06T08:24:02;14.40;;;6.63;;
24147;SDS011;12309;51.450;-2.624;2024-03-06T08:26:29;17.20;;;6.80;;
24147;SDS011;12309;51.450;-2.624;2024-03-06T08:28:54;13.60;;;6.60;;
24147;SDS011;12309;51.450;-2.624;2024-03-06T08:31:20;11.20;;;6.47;;
24147;SDS011;12309;51.450;-2.624;2024-03-06T08:33:46;13.67;;;6.40;;
24147;SDS011;12309;51.450;-2.624;2024-03-06T08:36:12;18.23;;;7.37;;
24147;SDS011;12309;51.450;-2.624;2024-03-06T08:38:39;10.47;;;6.17;;
24147;SDS011;12309;51.450;-2.624;2024-03-06T08:41:05;11.57;;;5.87;;
24147;SDS011;12309;51.450;-2.624;2024-03-06T08:43:31;12.93;;;5.37;;
24147;SDS011;12309;51.450;-2.624;2024-03-06T08:45:57;9.57;;;5.80;;
24147;SDS011;12309;51.450;-2.624;2024-03-06T08:48:23;17.53;;;7.60;;
24147;SDS011;12309;51.450;-2.624;2024-03-06T08:50:49;15.17;;;6.90;;
24147;SDS011;12309;51.450;-2.624;2024-03-06T08:53:16;18.00;;;6.40;;
24147;SDS011;12309;51.450;-2.624;2024-03-06T08:55:41;11.33;;;5.10;;
24147;SDS011;12309;51.450;-2.624;2024-03-06T08:58:07;13.90;;;6.27;;
24147;SDS011;12309;51.450;-2.624;2024-03-06T09:00:34;13.07;;;5.87;;
24147;SDS011;12309;51.450;-2.624;2024-03-06T09:03:00;16.57;;;6.00;;
24147;SDS011;12309;51.450;-2.624;2024-03-06T09:05:25;13.30;;;5.67;;
24147;SDS011;12309;51.450;-2.624;2024-03-06T09:07:51;14.97;;;5.03;;
24147;SDS011;12309;51.450;-2.624;2024-03-06T09:10:17;17.30;;;5.70;;
24147;SDS011;12309;51.450;-2.624;2024-03-06T09:12:44;16.70;;;5.90;;
24147;SDS011;12309;51.450;-2.624;2024-03-06T09:15:10;16.53;;;6.17;;
24147;SDS011;12309;51.450;-2.624;2024-03-06T09:17:37;19.87;;;5.57;;
24147;SDS011;12309;51.450;-2.624;2024-03-06T09:20:03;13.40;;;5.63;;
24147;SDS011;12309;51.450;-2.624;2024-03-06T09:22:35;17.63;;;5.80;;
24147;SDS011;12309;51.450;-2.624;2024-03-06T09:25:01;19.47;;;5.63;;
24147;SDS011;12309;51.450;-2.624;2024-03-06T09:27:27;22.67;;;7.17;;
24147;SDS011;12309;51.450;-2.624;2024-03-06T09:29:53;12.87;;;5.40;;
24147;SDS011;12309;51.450;-2.624;2024-03-06T09:32:18;15.23;;;5.07;;
24147;SDS011;12309;51.450;-2.624;2024-03-06T09:34:44;19.37;;;5.17;;
24147;SDS011;12309;51.450;-2.624;2024-03-06T09:37:10;17.23;;;5.40;;
24147;SDS011;12309;51.450;-2.624;2024-03-06T09:39:36;11.27;;;5.10;;
24147;SDS011;12309;51.450;-2.624;2024-03-06T09:42:02;31.87;;;6.50;;
24147;SDS011;12309;51.450;-2.624;2024-03-06T09:44:28;17.83;;;5.77;;
24147;SDS011;12309;51.450;-2.624;2024-03-06T09:46:54;14.73;;;5.63;;
24147;SDS011;12309;51.450;-2.624;2024-03-06T09:49:21;17.43;;;5.33;;
24147;SDS011;12309;51.450;-2.624;2024-03-06T09:51:48;15.13;;;5.40;;
24147;SDS011;12309;51.450;-2.624;2024-03-06T09:54:20;21.60;;;6.13;;
24147;SDS011;12309;51.450;-2.624;2024-03-06T09:56:49;22.17;;;6.73;;
24147;SDS011;12309;51.450;-2.624;2024-03-06T09:59:14;17.37;;;6.73;;
24147;SDS011;12309;51.450;-2.624;2024-03-06T10:01:50;16.67;;;5.27;;
24147;SDS011;12309;51.450;-2.624;2024-03-06T10:04:20;18.13;;;5.80;;
24147;SDS011;12309;51.450;-2.624;2024-03-06T10:06:47;17.57;;;6.37;;
24147;SDS011;12309;51.450;-2.624;2024-03-06T10:09:16;18.33;;;6.50;;
24147;SDS011;12309;51.450;-2.624;2024-03-06T10:11:42;17.97;;;6.20;;
24147;SDS011;12309;51.450;-2.624;2024-03-06T10:14:08;24.37;;;6.93;;
24147;SDS011;12309;51.450;-2.624;2024-03-06T10:16:35;19.43;;;7.07;;
24147;SDS011;12309;51.450;-2.624;2024-03-06T10:19:16;17.63;;;7.13;;
24147;SDS011;12309;51.450;-2.624;2024-03-06T10:21:43;22.47;;;6.73;;
24147;SDS011;12309;51.450;-2.624;2024-03-06T10:24:11;21.90;;;7.07;;
24147;SDS011;12309;51.450;-2.624;2024-03-06T10:26:37;21.93;;;7.83;;
24147;SDS011;12309;51.450;-2.624;2024-03-06T10:29:03;28.10;;;7.47;;
24147;SDS011;12309;51.450;-2.624;2024-03-06T10:31:29;22.03;;;7.43;;
24147;SDS011;12309;51.450;-2.624;2024-03-06T10:33:55;20.07;;;6.93;;
24147;SDS011;12309;51.450;-2.624;2024-03-06T10:36:20;19.47;;;6.67;;
24147;SDS011;12309;51.450;-2.624;2024-03-06T10:38:46;19.00;;;7.10;;
24147;SDS011;12309;51.450;-2.624;2024-03-06T10:41:15;22.33;;;7.20;;
24147;SDS011;12309;51.450;-2.624;2024-03-06T10:43:47;26.67;;;6.97;;
24147;SDS011;12309;51.450;-2.624;2024-03-06T10:46:15;19.57;;;6.83;;
24147;SDS011;12309;51.450;-2.624;2024-03-06T10:48:45;15.13;;;6.30;;
24147;SDS011;12309;51.450;-2.624;2024-03-06T10:51:14;20.83;;;6.43;;
24147;SDS011;12309;51.450;-2.624;2024-03-06T10:53:42;13.63;;;5.90;;
24147;SDS011;12309;51.450;-2.624;2024-03-06T10:56:09;21.35;;;6.38;;
24147;SDS011;12309;51.450;-2.624;2024-03-06T10:58:35;14.75;;;5.40;;
24147;SDS011;12309;51.450;-2.624;2024-03-06T11:01:03;17.70;;;6.43;;
24147;SDS011;12309;51.450;-2.624;2024-03-06T11:03:31;19.50;;;6.13;;
24147;SDS011;12309;51.450;-2.624;2024-03-06T11:05:57;13.80;;;6.38;;
24147;SDS011;12309;51.450;-2.624;2024-03-06T11:08:22;17.17;;;6.40;;
24147;SDS011;12309;51.450;-2.624;2024-03-06T11:10:50;22.00;;;6.70;;
24147;SDS011;12309;51.450;-2.624;2024-03-06T11:15:45;18.67;;;5.50;;
24147;SDS011;12309;51.450;-2.624;2024-03-06T11:23:31;17.60;;;4.57;;
24147;SDS011;12309;51.450;-2.624;2024-03-06T11:26:01;12.13;;;4.75;;
24147;SDS011;12309;51.450;-2.624;2024-03-06T11:31:05;18.15;;;4.53;;
24147;SDS011;12309;51.450;-2.624;2024-03-06T11:33:38;20.02;;;5.43;;
24147;SDS011;12309;51.450;-2.624;2024-03-06T11:36:15;21.30;;;5.15;;
24147;SDS011;12309;51.450;-2.624;2024-03-06T11:41:24;16.77;;;4.50;;
24147;SDS011;12309;51.450;-2.624;2024-03-06T11:43:59;13.70;;;4.78;;
24147;SDS011;12309;51.450;-2.624;2024-03-06T11:46:44;13.32;;;4.82;;
24147;SDS011;12309;51.450;-2.624;2024-03-06T11:49:16;12.60;;;5.15;;
24147;SDS011;12309;51.450;-2.624;2024-03-06T11:52:08;13.75;;;4.93;;
24147;SDS011;12309;51.450;-2.624;2024-03-06T11:54:35;16.23;;;4.85;;
24147;SDS011;12309;51.450;-2.624;2024-03-06T11:57:02;16.67;;;5.45;;
24147;SDS011;12309;51.450;-2.624;2024-03-06T11:59:29;15.20;;;5.10;;
24147;SDS011;12309;51.450;-2.624;2024-03-06T12:01:57;11.27;;;4.60;;
24147;SDS011;12309;51.450;-2.624;2024-03-06T12:04:26;17.23;;;6.13;;
24147;SDS011;12309;51.450;-2.624;2024-03-06T12:06:56;21.98;;;5.72;;
24147;SDS011;12309;51.450;-2.624;2024-03-06T12:09:24;18.80;;;5.50;;
24147;SDS011;12309;51.450;-2.624;2024-03-06T12:11:50;15.38;;;4.97;;
24147;SDS011;12309;51.450;-2.624;2024-03-06T12:14:17;12.65;;;5.65;;
24147;SDS011;12309;51.450;-2.624;2024-03-06T12:16:54;15.73;;;5.03;;
24147;SDS011;12309;51.450;-2.624;2024-03-06T12:19:27;14.30;;;5.75;;
24147;SDS011;12309;51.450;-2.624;2024-03-06T12:22:00;19.23;;;6.43;;
24147;SDS011;12309;51.450;-2.624;2024-03-06T12:24:29;12.73;;;5.78;;
24147;SDS011;12309;51.450;-2.624;2024-03-06T12:27:02;16.40;;;5.07;;
24147;SDS011;12309;51.450;-2.624;2024-03-06T12:29:29;15.75;;;5.55;;
24147;SDS011;12309;51.450;-2.624;2024-03-06T12:31:57;15.18;;;5.40;;
24147;SDS011;12309;51.450;-2.624;2024-03-06T12:34:26;15.57;;;5.80;;
24147;SDS011;12309;51.450;-2.624;2024-03-06T12:36:52;15.63;;;5.07;;
24147;SDS011;12309;51.450;-2.624;2024-03-06T12:39:18;10.98;;;3.90;;
24147;SDS011;12309;51.450;-2.624;2024-03-06T12:41:48;12.05;;;4.13;;
24147;SDS011;12309;51.450;-2.624;2024-03-06T12:44:16;18.30;;;5.38;;
24147;SDS011;12309;51.450;-2.624;2024-03-06T12:46:42;14.00;;;4.97;;
24147;SDS011;12309;51.450;-2.624;2024-03-06T12:49:08;13.35;;;4.20;;
24147;SDS011;12309;51.450;-2.624;2024-03-06T12:51:34;12.32;;;3.90;;
24147;SDS011;12309;51.450;-2.624;2024-03-06T12:53:59;10.98;;;3.65;;
24147;SDS011;12309;51.450;-2.624;2024-03-06T12:56:26;13.35;;;3.90;;
24147;SDS011;12309;51.450;-2.624;2024-03-06T12:58:52;14.88;;;4.22;;
24147;SDS011;12309;51.450;-2.624;2024-03-06T13:01:17;13.85;;;3.88;;
24147;SDS011;12309;51.450;-2.624;2024-03-06T13:03:46;14.00;;;3.80;;
24147;SDS011;12309;51.450;-2.624;2024-03-06T13:06:12;12.65;;;3.83;;
24147;SDS011;12309;51.450;-2.624;2024-03-06T13:08:38;10.70;;;3.50;;
24147;SDS011;12309;51.450;-2.624;2024-03-06T13:11:03;14.32;;;3.65;;
24147;SDS011;12309;51.450;-2.624;2024-03-06T13:13:29;13.15;;;3.50;;
24147;SDS011;12309;51.450;-2.624;2024-03-06T13:15:57;14.43;;;4.32;;
24147;SDS011;12309;51.450;-2.624;2024-03-06T13:18:23;58.80;;;21.00;;
24147;SDS011;12309;51.450;-2.624;2024-03-06T13:20:50;60.95;;;21.38;;
24147;SDS011;12309;51.450;-2.624;2024-03-06T13:23:16;20.45;;;7.55;;
24147;SDS011;12309;51.450;-2.624;2024-03-06T13:25:42;16.80;;;5.03;;
24147;SDS011;12309;51.450;-2.624;2024-03-06T13:28:08;15.68;;;3.58;;
24147;SDS011;12309;51.450;-2.624;2024-03-06T13:30:34;13.43;;;3.47;;
24147;SDS011;12309;51.450;-2.624;2024-03-06T13:33:00;13.65;;;3.50;;
24147;SDS011;12309;51.450;-2.624;2024-03-06T13:35:26;12.07;;;3.20;;
24147;SDS011;12309;51.450;-2.624;2024-03-06T13:37:53;17.60;;;3.20;;
24147;SDS011;12309;51.450;-2.624;2024-03-06T13:40:19;15.30;;;3.35;;
24147;SDS011;12309;51.450;-2.624;2024-03-06T13:42:45;10.45;;;2.90;;
24147;SDS011;12309;51.450;-2.624;2024-03-06T13:45:11;16.48;;;3.83;;
24147;SDS011;12309;51.450;-2.624;2024-03-06T13:47:40;9.18;;;3.08;;
24147;SDS011;12309;51.450;-2.624;2024-03-06T13:50:15;11.25;;;2.83;;
24147;SDS011;12309;51.450;-2.624;2024-03-06T13:52:44;9.82;;;2.03;;
24147;SDS011;12309;51.450;-2.624;2024-03-06T13:55:10;8.48;;;2.38;;
24147;SDS011;12309;51.450;-2.624;2024-03-06T13:57:36;11.73;;;3.00;;
24147;SDS011;12309;51.450;-2.624;2024-03-06T14:02:30;10.43;;;2.65;;
24147;SDS011;12309;51.450;-2.624;2024-03-06T14:04:56;15.27;;;2.72;;
24147;SDS011;12309;51.450;-2.624;2024-03-06T14:07:22;9.68;;;2.33;;
24147;SDS011;12309;51.450;-2.624;2024-03-06T14:09:48;9.05;;;2.30;;
24147;SDS011;12309;51.450;-2.624;2024-03-06T14:12:17;9.07;;;2.17;;
24147;SDS011;12309;51.450;-2.624;2024-03-06T14:14:43;10.90;;;2.03;;
24147;SDS011;12309;51.450;-2.624;2024-03-06T14:17:10;9.55;;;2.13;;
24147;SDS011;12309;51.450;-2.624;2024-03-06T14:19:37;13.95;;;2.40;;
24147;SDS011;12309;51.450;-2.624;2024-03-06T14:22:03;9.32;;;2.42;;
24147;SDS011;12309;51.450;-2.624;2024-03-06T14:24:30;8.32;;;2.38;;
24147;SDS011;12309;51.450;-2.624;2024-03-06T14:26:55;10.68;;;2.67;;
24147;SDS011;12309;51.450;-2.624;2024-03-06T14:29:21;12.57;;;2.35;;
24147;SDS011;12309;51.450;-2.624;2024-03-06T14:31:47;9.23;;;1.85;;
24147;SDS011;12309;51.450;-2.624;2024-03-06T14:34:13;7.88;;;2.40;;
24147;SDS011;12309;51.450;-2.624;2024-03-06T14:36:39;8.13;;;2.00;;